sensor_id;sensor_type;location;lat;lon;timestamp;temperature;humidity
21019;DHT22;10667;51.056;3.732;2022-07-01T00:01:39;15.70;99.90
21019;DHT22;10667;51.056;3.732;2022-07-01T00:04:07;15.80;99.90
21019;DHT22;10667;51.056;3.732;2022-07-01T00:06:34;15.60;99.90
21019;DHT22;10667;51.056;3.732;2022-07-01T00:08:59;15.50;99.90
21019;DHT22;10667;51.056;3.732;2022-07-01T00:11:25;15.60;99.90
21019;DHT22;10667;51.056;3.732;2022-07-01T00:13:51;15.60;99.90
21019;DHT22;10667;51.056;3.732;2022-07-01T00:16:17;15.40;99.90
21019;DHT22;10667;51.056;3.732;2022-07-01T00:18:43;15.30;99.90
21019;DHT22;10667;51.056;3.732;2022-07-01T00:21:09;15.40;99.90
21019;DHT22;10667;51.056;3.732;2022-07-01T00:23:34;15.40;99.90
21019;DHT22;10667;51.056;3.732;2022-07-01T00:26:00;15.50;99.90
21019;DHT22;10667;51.056;3.732;2022-07-01T00:28:26;15.50;99.90
21019;DHT22;10667;51.056;3.732;2022-07-01T00:30:52;15.60;99.90
21019;DHT22;10667;51.056;3.732;2022-07-01T00:33:18;15.50;99.90
21019;DHT22;10667;51.056;3.732;2022-07-01T00:35:43;15.50;99.90
21019;DHT22;10667;51.056;3.732;2022-07-01T00:38:09;15.30;99.90
21019;DHT22;10667;51.056;3.732;2022-07-01T00:40:35;15.40;99.90
21019;DHT22;10667;51.056;3.732;2022-07-01T00:43:02;15.40;99.90
21019;DHT22;10667;51.056;3.732;2022-07-01T00:45:28;15.20;99.90
21019;DHT22;10667;51.056;3.732;2022-07-01T00:47:54;15.10;99.90
21019;DHT22;10667;51.056;3.732;2022-07-01T00:50:19;15.10;99.90
21019;DHT22;10667;51.056;3.732;2022-07-01T00:52:45;15.00;99.90
21019;DHT22;10667;51.056;3.732;2022-07-01T00:55:13;15.00;99.90
21019;DHT22;10667;51.056;3.732;2022-07-01T00:57:40;14.90;99.90
21019;DHT22;10667;51.056;3.732;2022-07-01T01:00:11;14.80;99.90
21019;DHT22;10667;51.056;3.732;2022-07-01T01:02:38;14.80;99.90
21019;DHT22;10667;51.056;3.732;2022-07-01T01:05:04;14.90;99.90
21019;DHT22;10667;51.056;3.732;2022-07-01T01:07:31;14.90;99.90
21019;DHT22;10667;51.056;3.732;2022-07-01T01:09:59;14.80;99.90
21019;DHT22;10667;51.056;3.732;2022-07-01T01:12:25;14.80;99.90
21019;DHT22;10667;51.056;3.732;2022-07-01T01:14:51;14.70;99.90
21019;DHT22;10667;51.056;3.732;2022-07-01T01:17:18;14.90;99.90
21019;DHT22;10667;51.056;3.732;2022-07-01T01:19:44;14.90;99.90
21019;DHT22;10667;51.056;3.732;2022-07-01T01:22:10;14.80;99.90
21019;DHT22;10667;51.056;3.732;2022-07-01T01:24:37;14.80;99.90
21019;DHT22;10667;51.056;3.732;2022-07-01T01:27:05;14.70;99.90
21019;DHT22;10667;51.056;3.732;2022-07-01T01:29:32;14.70;99.90
21019;DHT22;10667;51.056;3.732;2022-07-01T01:31:58;14.60;99.90
21019;DHT22;10667;51.056;3.732;2022-07-01T01:34:23;14.70;99.90
21019;DHT22;10667;51.056;3.732;2022-07-01T01:36:49;14.80;99.90
21019;DHT22;10667;51.056;3.732;2022-07-01T01:39:15;15.00;99.90
21019;DHT22;10667;51.056;3.732;2022-07-01T01:41:44;15.00;99.90
21019;DHT22;10667;51.056;3.732;2022-07-01T01:44:10;15.00;99.90
21019;DHT22;10667;51.056;3.732;2022-07-01T01:46:36;15.10;99.90
21019;DHT22;10667;51.056;3.732;2022-07-01T01:49:04;15.00;99.90
21019;DHT22;10667;51.056;3.732;2022-07-01T01:51:30;15.00;99.90
21019;DHT22;10667;51.056;3.732;2022-07-01T01:53:55;14.90;99.90
21019;DHT22;10667;51.056;3.732;2022-07-01T01:56:22;15.00;99.90
21019;DHT22;10667;51.056;3.732;2022-07-01T01:58:47;14.90;99.90
21019;DHT22;10667;51.056;3.732;2022-07-01T02:01:14;14.90;99.90
21019;DHT22;10667;51.056;3.732;2022-07-01T02:03:40;15.00;99.90
21019;DHT22;10667;51.056;3.732;2022-07-01T02:06:07;15.00;99.90
21019;DHT22;10667;51.056;3.732;2022-07-01T02:08:35;15.10;99.90
21019;DHT22;10667;51.056;3.732;2022-07-01T02:11:01;15.10;99.90
21019;DHT22;10667;51.056;3.732;2022-07-01T02:13:28;15.20;99.90
21019;DHT22;10667;51.056;3.732;2022-07-01T02:15:54;15.20;99.90
21019;DHT22;10667;51.056;3.732;2022-07-01T02:18:20;15.10;99.90
21019;DHT22;10667;51.056;3.732;2022-07-01T02:20:45;15.00;99.90
21019;DHT22;10667;51.056;3.732;2022-07-01T02:23:11;15.00;99.90
21019;DHT22;10667;51.056;3.732;2022-07-01T02:25:37;14.90;99.90
21019;DHT22;10667;51.056;3.732;2022-07-01T02:28:03;14.90;99.90
21019;DHT22;10667;51.056;3.732;2022-07-01T02:30:29;14.70;99.90
21019;DHT22;10667;51.056;3.732;2022-07-01T02:32:56;14.70;99.90
21019;DHT22;10667;51.056;3.732;2022-07-01T02:35:22;14.60;99.90
21019;DHT22;10667;51.056;3.732;2022-07-01T02:37:48;14.60;99.90
21019;DHT22;10667;51.056;3.732;2022-07-01T02:40:14;14.60;99.90
21019;DHT22;10667;51.056;3.732;2022-07-01T02:42:40;14.70;99.90
21019;DHT22;10667;51.056;3.732;2022-07-01T02:45:07;14.80;99.90
21019;DHT22;10667;51.056;3.732;2022-07-01T02:47:38;14.70;99.90
21019;DHT22;10667;51.056;3.732;2022-07-01T02:50:05;14.70;99.90
21019;DHT22;10667;51.056;3.732;2022-07-01T02:52:32;14.70;99.90
21019;DHT22;10667;51.056;3.732;2022-07-01T02:55:00;14.70;99.90
21019;DHT22;10667;51.056;3.732;2022-07-01T02:57:26;14.60;99.90
21019;DHT22;10667;51.056;3.732;2022-07-01T02:59:52;14.60;99.90
21019;DHT22;10667;51.056;3.732;2022-07-01T03:02:21;14.70;99.90
21019;DHT22;10667;51.056;3.732;2022-07-01T03:04:47;14.70;99.90
21019;DHT22;10667;51.056;3.732;2022-07-01T03:07:14;14.70;99.90
21019;DHT22;10667;51.056;3.732;2022-07-01T03:09:40;14.60;99.90
21019;DHT22;10667;51.056;3.732;2022-07-01T03:12:08;14.60;99.90
21019;DHT22;10667;51.056;3.732;2022-07-01T03:15:03;14.70;99.90
21019;DHT22;10667;51.056;3.732;2022-07-01T03:17:31;14.60;99.90
21019;DHT22;10667;51.056;3.732;2022-07-01T03:19:57;14.60;99.90
21019;DHT22;10667;51.056;3.732;2022-07-01T03:22:26;14.50;99.90
21019;DHT22;10667;51.056;3.732;2022-07-01T03:24:52;14.70;99.90
21019;DHT22;10667;51.056;3.732;2022-07-01T03:27:19;14.60;99.90
21019;DHT22;10667;51.056;3.732;2022-07-01T03:29:45;14.60;99.90
21019;DHT22;10667;51.056;3.732;2022-07-01T03:32:12;14.60;99.90
21019;DHT22;10667;51.056;3.732;2022-07-01T03:34:39;14.50;99.90
21019;DHT22;10667;51.056;3.732;2022-07-01T03:37:05;14.40;99.90
21019;DHT22;10667;51.056;3.732;2022-07-01T03:39:32;14.40;99.90
21019;DHT22;10667;51.056;3.732;2022-07-01T03:41:58;14.40;99.90
21019;DHT22;10667;51.056;3.732;2022-07-01T03:44:24;14.40;99.90
21019;DHT22;10667;51.056;3.732;2022-07-01T03:46:49;14.30;99.90
21019;DHT22;10667;51.056;3.732;2022-07-01T03:49:15;14.20;99.90
21019;DHT22;10667;51.056;3.732;2022-07-01T03:51:41;13.90;99.90
21019;DHT22;10667;51.056;3.732;2022-07-01T03:54:07;14.00;99.90
21019;DHT22;10667;51.056;3.732;2022-07-01T03:56:51;14.10;99.90
21019;DHT22;10667;51.056;3.732;2022-07-01T03:59:16;14.00;99.90
21019;DHT22;10667;51.056;3.732;2022-07-01T04:01:42;14.00;99.90
21019;DHT22;10667;51.056;3.732;2022-07-01T04:04:08;13.90;99.90
21019;DHT22;10667;51.056;3.732;2022-07-01T04:06:34;13.80;99.90
21019;DHT22;10667;51.056;3.732;2022-07-01T04:09:00;13.90;99.90
21019;DHT22;10667;51.056;3.732;2022-07-01T04:11:26;13.80;99.90
21019;DHT22;10667;51.056;3.732;2022-07-01T04:13:51;13.90;99.90
21019;DHT22;10667;51.056;3.732;2022-07-01T04:16:18;13.70;99.90
21019;DHT22;10667;51.056;3.732;2022-07-01T04:18:45;13.70;99.90
21019;DHT22;10667;51.056;3.732;2022-07-01T04:21:11;13.50;99.90
21019;DHT22;10667;51.056;3.732;2022-07-01T04:23:56;13.40;99.90
21019;DHT22;10667;51.056;3.732;2022-07-01T04:26:24;13.60;99.90
21019;DHT22;10667;51.056;3.732;2022-07-01T04:28:51;13.80;99.90
21019;DHT22;10667;51.056;3.732;2022-07-01T04:31:18;14.00;99.90
21019;DHT22;10667;51.056;3.732;2022-07-01T04:33:45;14.10;99.90
21019;DHT22;10667;51.056;3.732;2022-07-01T04:36:10;14.00;99.90
21019;DHT22;10667;51.056;3.732;2022-07-01T04:38:36;14.20;99.90
21019;DHT22;10667;51.056;3.732;2022-07-01T04:41:02;14.20;99.90
21019;DHT22;10667;51.056;3.732;2022-07-01T04:43:46;14.30;99.90
21019;DHT22;10667;51.056;3.732;2022-07-01T04:46:12;14.30;99.90
21019;DHT22;10667;51.056;3.732;2022-07-01T04:48:37;14.30;99.90
21019;DHT22;10667;51.056;3.732;2022-07-01T04:51:03;14.50;99.90
21019;DHT22;10667;51.056;3.732;2022-07-01T04:53:28;14.50;99.90
21019;DHT22;10667;51.056;3.732;2022-07-01T04:55:54;14.60;99.90
21019;DHT22;10667;51.056;3.732;2022-07-01T04:58:20;14.40;99.90
21019;DHT22;10667;51.056;3.732;2022-07-01T05:00:45;14.50;99.90
21019;DHT22;10667;51.056;3.732;2022-07-01T05:03:14;14.40;99.90
21019;DHT22;10667;51.056;3.732;2022-07-01T05:05:39;14.50;99.90
21019;DHT22;10667;51.056;3.732;2022-07-01T05:08:05;14.50;99.90
21019;DHT22;10667;51.056;3.732;2022-07-01T05:10:31;14.40;99.90
21019;DHT22;10667;51.056;3.732;2022-07-01T05:12:56;14.30;99.90
21019;DHT22;10667;51.056;3.732;2022-07-01T05:15:22;14.30;99.90
21019;DHT22;10667;51.056;3.732;2022-07-01T05:17:48;14.40;99.90
21019;DHT22;10667;51.056;3.732;2022-07-01T05:20:32;14.50;99.90
21019;DHT22;10667;51.056;3.732;2022-07-01T05:23:16;14.30;99.90
21019;DHT22;10667;51.056;3.732;2022-07-01T05:25:42;14.20;99.90
21019;DHT22;10667;51.056;3.732;2022-07-01T05:28:07;14.40;99.90
21019;DHT22;10667;51.056;3.732;2022-07-01T05:30:33;14.60;99.90
21019;DHT22;10667;51.056;3.732;2022-07-01T05:32:59;14.70;99.90
21019;DHT22;10667;51.056;3.732;2022-07-01T05:35:24;14.80;99.90
21019;DHT22;10667;51.056;3.732;2022-07-01T05:37:50;14.80;99.90
21019;DHT22;10667;51.056;3.732;2022-07-01T05:40:16;14.90;99.90
21019;DHT22;10667;51.056;3.732;2022-07-01T05:42:41;14.90;99.90
21019;DHT22;10667;51.056;3.732;2022-07-01T05:45:07;14.90;99.90
21019;DHT22;10667;51.056;3.732;2022-07-01T05:47:33;14.80;99.90
21019;DHT22;10667;51.056;3.732;2022-07-01T05:49:58;14.80;99.90
21019;DHT22;10667;51.056;3.732;2022-07-01T05:52:24;14.80;99.90
21019;DHT22;10667;51.056;3.732;2022-07-01T05:54:50;14.70;99.90
21019;DHT22;10667;51.056;3.732;2022-07-01T05:57:15;14.60;99.90
21019;DHT22;10667;51.056;3.732;2022-07-01T05:59:41;14.50;99.90
21019;DHT22;10667;51.056;3.732;2022-07-01T06:02:07;14.60;99.90
21019;DHT22;10667;51.056;3.732;2022-07-01T06:04:32;14.60;99.90
21019;DHT22;10667;51.056;3.732;2022-07-01T06:06:59;14.70;99.90
21019;DHT22;10667;51.056;3.732;2022-07-01T06:09:25;14.80;99.90
21019;DHT22;10667;51.056;3.732;2022-07-01T06:11:51;14.60;99.90
21019;DHT22;10667;51.056;3.732;2022-07-01T06:14:16;14.80;99.90
21019;DHT22;10667;51.056;3.732;2022-07-01T06:16:42;14.70;99.90
21019;DHT22;10667;51.056;3.732;2022-07-01T06:19:08;14.60;99.90
21019;DHT22;10667;51.056;3.732;2022-07-01T06:21:33;14.40;99.90
21019;DHT22;10667;51.056;3.732;2022-07-01T06:23:59;14.40;99.90
21019;DHT22;10667;51.056;3.732;2022-07-01T06:26:25;14.50;99.90
21019;DHT22;10667;51.056;3.732;2022-07-01T06:28:51;14.60;99.90
21019;DHT22;10667;51.056;3.732;2022-07-01T06:31:17;14.60;99.90
21019;DHT22;10667;51.056;3.732;2022-07-01T06:33:43;14.70;99.90
21019;DHT22;10667;51.056;3.732;2022-07-01T06:36:08;14.90;99.90
21019;DHT22;10667;51.056;3.732;2022-07-01T06:38:34;14.80;99.90
21019;DHT22;10667;51.056;3.732;2022-07-01T06:41:00;14.80;99.90
21019;DHT22;10667;51.056;3.732;2022-07-01T06:43:44;15.00;99.90
21019;DHT22;10667;51.056;3.732;2022-07-01T06:46:10;15.10;99.90
21019;DHT22;10667;51.056;3.732;2022-07-01T06:48:36;15.20;99.90
21019;DHT22;10667;51.056;3.732;2022-07-01T06:51:03;15.30;99.90
21019;DHT22;10667;51.056;3.732;2022-07-01T06:53:29;15.40;99.90
21019;DHT22;10667;51.056;3.732;2022-07-01T06:55:55;15.40;99.90
21019;DHT22;10667;51.056;3.732;2022-07-01T06:58:21;15.40;99.90
21019;DHT22;10667;51.056;3.732;2022-07-01T07:00:47;15.50;99.90
21019;DHT22;10667;51.056;3.732;2022-07-01T07:03:13;15.60;99.90
21019;DHT22;10667;51.056;3.732;2022-07-01T07:05:38;15.60;99.90
21019;DHT22;10667;51.056;3.732;2022-07-01T07:08:04;15.60;99.90
21019;DHT22;10667;51.056;3.732;2022-07-01T07:10:30;15.80;99.90
21019;DHT22;10667;51.056;3.732;2022-07-01T07:12:56;15.90;99.90
21019;DHT22;10667;51.056;3.732;2022-07-01T07:15:21;16.20;99.90
21019;DHT22;10667;51.056;3.732;2022-07-01T07:17:47;16.20;99.90
21019;DHT22;10667;51.056;3.732;2022-07-01T07:20:13;16.20;99.90
21019;DHT22;10667;51.056;3.732;2022-07-01T07:22:38;16.30;99.90
21019;DHT22;10667;51.056;3.732;2022-07-01T07:25:04;16.70;99.90
21019;DHT22;10667;51.056;3.732;2022-07-01T07:27:30;17.10;99.90
21019;DHT22;10667;51.056;3.732;2022-07-01T07:29:56;17.20;99.90
21019;DHT22;10667;51.056;3.732;2022-07-01T07:32:21;17.30;99.90
21019;DHT22;10667;51.056;3.732;2022-07-01T07:34:47;17.30;99.90
21019;DHT22;10667;51.056;3.732;2022-07-01T07:37:12;17.70;99.90
21019;DHT22;10667;51.056;3.732;2022-07-01T07:39:38;17.70;99.90
21019;DHT22;10667;51.056;3.732;2022-07-01T07:42:04;17.60;99.90
21019;DHT22;10667;51.056;3.732;2022-07-01T07:44:31;17.80;99.90
21019;DHT22;10667;51.056;3.732;2022-07-01T07:46:57;18.00;99.90
21019;DHT22;10667;51.056;3.732;2022-07-01T07:49:24;17.80;99.90
21019;DHT22;10667;51.056;3.732;2022-07-01T07:51:50;17.60;99.90
21019;DHT22;10667;51.056;3.732;2022-07-01T07:54:16;17.40;99.90
21019;DHT22;10667;51.056;3.732;2022-07-01T07:56:42;17.40;99.90
21019;DHT22;10667;51.056;3.732;2022-07-01T07:59:08;17.40;99.90
21019;DHT22;10667;51.056;3.732;2022-07-01T08:01:34;17.40;99.90
21019;DHT22;10667;51.056;3.732;2022-07-01T08:03:59;17.70;99.90
21019;DHT22;10667;51.056;3.732;2022-07-01T08:06:25;17.60;99.90
21019;DHT22;10667;51.056;3.732;2022-07-01T08:08:51;17.80;99.90
21019;DHT22;10667;51.056;3.732;2022-07-01T08:11:17;18.00;99.90
21019;DHT22;10667;51.056;3.732;2022-07-01T08:13:43;17.90;99.90
21019;DHT22;10667;51.056;3.732;2022-07-01T08:16:09;17.70;99.90
21019;DHT22;10667;51.056;3.732;2022-07-01T08:18:35;17.80;99.90
21019;DHT22;10667;51.056;3.732;2022-07-01T08:21:01;17.70;99.90
21019;DHT22;10667;51.056;3.732;2022-07-01T08:23:26;17.70;99.90
21019;DHT22;10667;51.056;3.732;2022-07-01T08:25:52;17.70;99.90
21019;DHT22;10667;51.056;3.732;2022-07-01T08:28:18;17.80;99.90
21019;DHT22;10667;51.056;3.732;2022-07-01T08:30:44;17.80;99.90
21019;DHT22;10667;51.056;3.732;2022-07-01T08:33:10;18.00;99.90
21019;DHT22;10667;51.056;3.732;2022-07-01T08:35:36;18.20;99.90
21019;DHT22;10667;51.056;3.732;2022-07-01T08:38:02;18.30;99.90
21019;DHT22;10667;51.056;3.732;2022-07-01T08:40:30;18.30;99.90
21019;DHT22;10667;51.056;3.732;2022-07-01T08:43:00;18.60;99.90
21019;DHT22;10667;51.056;3.732;2022-07-01T08:45:28;18.60;99.90
21019;DHT22;10667;51.056;3.732;2022-07-01T08:47:56;18.90;99.90
21019;DHT22;10667;51.056;3.732;2022-07-01T08:50:36;18.80;99.90
21019;DHT22;10667;51.056;3.732;2022-07-01T08:53:03;18.70;99.90
21019;DHT22;10667;51.056;3.732;2022-07-01T08:55:29;18.90;99.90
21019;DHT22;10667;51.056;3.732;2022-07-01T08:57:55;18.90;99.90
21019;DHT22;10667;51.056;3.732;2022-07-01T09:00:21;19.10;99.90
21019;DHT22;10667;51.056;3.732;2022-07-01T09:02:50;19.20;99.90
21019;DHT22;10667;51.056;3.732;2022-07-01T09:05:17;19.60;99.90
21019;DHT22;10667;51.056;3.732;2022-07-01T09:07:43;19.40;99.90
21019;DHT22;10667;51.056;3.732;2022-07-01T09:10:14;19.30;99.90
21019;DHT22;10667;51.056;3.732;2022-07-01T09:12:41;18.90;99.90
21019;DHT22;10667;51.056;3.732;2022-07-01T09:17:46;18.80;99.90
21019;DHT22;10667;51.056;3.732;2022-07-01T09:20:44;18.90;99.90
21019;DHT22;10667;51.056;3.732;2022-07-01T09:23:12;19.30;99.90
21019;DHT22;10667;51.056;3.732;2022-07-01T09:25:47;19.10;99.90
21019;DHT22;10667;51.056;3.732;2022-07-01T09:28:16;19.30;99.90
21019;DHT22;10667;51.056;3.732;2022-07-01T09:30:44;19.60;99.90
21019;DHT22;10667;51.056;3.732;2022-07-01T09:33:14;19.70;99.90
21019;DHT22;10667;51.056;3.732;2022-07-01T09:35:42;19.70;99.90
21019;DHT22;10667;51.056;3.732;2022-07-01T09:38:11;19.70;99.90
21019;DHT22;10667;51.056;3.732;2022-07-01T09:41:01;20.00;99.90
21019;DHT22;10667;51.056;3.732;2022-07-01T09:43:30;20.10;99.90
21019;DHT22;10667;51.056;3.732;2022-07-01T09:46:01;20.00;99.90
21019;DHT22;10667;51.056;3.732;2022-07-01T09:48:43;20.10;99.90
21019;DHT22;10667;51.056;3.732;2022-07-01T09:51:12;20.00;99.90
21019;DHT22;10667;51.056;3.732;2022-07-01T09:53:38;19.90;99.90
21019;DHT22;10667;51.056;3.732;2022-07-01T09:56:04;19.90;99.90
21019;DHT22;10667;51.056;3.732;2022-07-01T09:58:30;20.10;99.90
21019;DHT22;10667;51.056;3.732;2022-07-01T10:00:58;20.50;99.90
21019;DHT22;10667;51.056;3.732;2022-07-01T10:03:26;20.70;99.90
21019;DHT22;10667;51.056;3.732;2022-07-01T10:06:03;20.90;99.90
21019;DHT22;10667;51.056;3.732;2022-07-01T10:13:39;20.80;99.90
21019;DHT22;10667;51.056;3.732;2022-07-01T10:16:07;20.80;99.90
21019;DHT22;10667;51.056;3.732;2022-07-01T10:18:34;21.20;99.90
21019;DHT22;10667;51.056;3.732;2022-07-01T10:21:00;21.20;99.90
21019;DHT22;10667;51.056;3.732;2022-07-01T10:23:41;21.20;99.90
21019;DHT22;10667;51.056;3.732;2022-07-01T10:26:08;21.40;99.90
21019;DHT22;10667;51.056;3.732;2022-07-01T10:31:11;22.00;99.90
21019;DHT22;10667;51.056;3.732;2022-07-01T10:33:46;21.90;99.90
21019;DHT22;10667;51.056;3.732;2022-07-01T10:36:14;21.30;99.90
21019;DHT22;10667;51.056;3.732;2022-07-01T10:41:28;20.90;99.90
21019;DHT22;10667;51.056;3.732;2022-07-01T10:43:54;21.10;99.90
21019;DHT22;10667;51.056;3.732;2022-07-01T10:49:15;21.70;99.90
21019;DHT22;10667;51.056;3.732;2022-07-01T10:51:58;22.00;99.90
21019;DHT22;10667;51.056;3.732;2022-07-01T11:02:15;22.60;99.90
21019;DHT22;10667;51.056;3.732;2022-07-01T11:04:41;22.70;99.90
21019;DHT22;10667;51.056;3.732;2022-07-01T11:07:08;22.50;99.90
21019;DHT22;10667;51.056;3.732;2022-07-01T11:09:34;22.50;99.90
21019;DHT22;10667;51.056;3.732;2022-07-01T11:12:00;22.80;99.90
21019;DHT22;10667;51.056;3.732;2022-07-01T11:14:26;23.00;99.90
21019;DHT22;10667;51.056;3.732;2022-07-01T11:16:53;23.30;99.90
21019;DHT22;10667;51.056;3.732;2022-07-01T11:19:19;23.70;99.90
21019;DHT22;10667;51.056;3.732;2022-07-01T11:21:51;23.70;99.90
21019;DHT22;10667;51.056;3.732;2022-07-01T11:24:18;24.00;99.90
21019;DHT22;10667;51.056;3.732;2022-07-01T11:26:44;23.90;99.90
21019;DHT22;10667;51.056;3.732;2022-07-01T11:29:13;24.30;99.90
21019;DHT22;10667;51.056;3.732;2022-07-01T11:31:39;24.40;99.90
21019;DHT22;10667;51.056;3.732;2022-07-01T11:34:06;24.20;99.90
21019;DHT22;10667;51.056;3.732;2022-07-01T11:36:32;24.60;99.90
21019;DHT22;10667;51.056;3.732;2022-07-01T11:39:18;25.20;99.90
21019;DHT22;10667;51.056;3.732;2022-07-01T11:41:58;25.50;98.80
21019;DHT22;10667;51.056;3.732;2022-07-01T11:46:54;24.90;96.70
21019;DHT22;10667;51.056;3.732;2022-07-01T11:49:19;24.00;95.50
21019;DHT22;10667;51.056;3.732;2022-07-01T11:52:15;23.10;98.80
21019;DHT22;10667;51.056;3.732;2022-07-01T11:54:46;22.20;99.90
21019;DHT22;10667;51.056;3.732;2022-07-01T11:57:20;21.80;99.90
21019;DHT22;10667;51.056;3.732;2022-07-01T11:59:48;21.30;99.90
21019;DHT22;10667;51.056;3.732;2022-07-01T12:02:16;20.90;99.90
21019;DHT22;10667;51.056;3.732;2022-07-01T12:04:43;20.40;99.90
21019;DHT22;10667;51.056;3.732;2022-07-01T12:07:10;20.00;99.90
21019;DHT22;10667;51.056;3.732;2022-07-01T12:09:37;19.80;99.90
21019;DHT22;10667;51.056;3.732;2022-07-01T12:12:03;19.50;99.90
21019;DHT22;10667;51.056;3.732;2022-07-01T12:14:34;19.30;99.90
21019;DHT22;10667;51.056;3.732;2022-07-01T12:17:03;19.10;99.90
21019;DHT22;10667;51.056;3.732;2022-07-01T12:19:39;19.30;99.90
21019;DHT22;10667;51.056;3.732;2022-07-01T12:22:14;19.30;99.90
21019;DHT22;10667;51.056;3.732;2022-07-01T12:24:41;19.10;99.90
21019;DHT22;10667;51.056;3.732;2022-07-01T12:27:08;19.00;99.90
21019;DHT22;10667;51.056;3.732;2022-07-01T12:32:06;18.90;99.90
21019;DHT22;10667;51.056;3.732;2022-07-01T12:34:40;18.90;99.90
21019;DHT22;10667;51.056;3.732;2022-07-01T12:37:11;19.10;99.90
21019;DHT22;10667;51.056;3.732;2022-07-01T12:39:54;19.10;99.90
21019;DHT22;10667;51.056;3.732;2022-07-01T12:42:31;19.20;99.90
21019;DHT22;10667;51.056;3.732;2022-07-01T12:45:01;19.40;99.90
21019;DHT22;10667;51.056;3.732;2022-07-01T12:47:30;19.90;99.90
21019;DHT22;10667;51.056;3.732;2022-07-01T12:52:35;21.10;99.90
21019;DHT22;10667;51.056;3.732;2022-07-01T12:55:01;21.30;99.90
21019;DHT22;10667;51.056;3.732;2022-07-01T12:57:37;21.10;99.90
21019;DHT22;10667;51.056;3.732;2022-07-01T13:00:03;21.20;99.90
21019;DHT22;10667;51.056;3.732;2022-07-01T13:02:29;21.50;99.90
21019;DHT22;10667;51.056;3.732;2022-07-01T13:04:55;21.60;99.90
21019;DHT22;10667;51.056;3.732;2022-07-01T13:07:20;22.00;99.90
21019;DHT22;10667;51.056;3.732;2022-07-01T13:09:46;22.10;99.90
21019;DHT22;10667;51.056;3.732;2022-07-01T13:12:12;22.30;99.90
21019;DHT22;10667;51.056;3.732;2022-07-01T13:14:37;22.50;99.90
21019;DHT22;10667;51.056;3.732;2022-07-01T13:17:03;22.30;99.90
21019;DHT22;10667;51.056;3.732;2022-07-01T13:19:29;22.70;99.90
21019;DHT22;10667;51.056;3.732;2022-07-01T13:21:55;22.90;99.90
21019;DHT22;10667;51.056;3.732;2022-07-01T13:24:21;23.00;99.90
21019;DHT22;10667;51.056;3.732;2022-07-01T13:26:47;23.30;99.90
21019;DHT22;10667;51.056;3.732;2022-07-01T13:29:13;23.90;99.90
21019;DHT22;10667;51.056;3.732;2022-07-01T13:31:39;25.00;99.90
21019;DHT22;10667;51.056;3.732;2022-07-01T13:34:04;26.50;99.80
21019;DHT22;10667;51.056;3.732;2022-07-01T13:36:30;27.90;94.90
21019;DHT22;10667;51.056;3.732;2022-07-01T13:38:56;29.50;82.30
21019;DHT22;10667;51.056;3.732;2022-07-01T13:41:21;29.80;76.30
21019;DHT22;10667;51.056;3.732;2022-07-01T13:43:49;29.30;75.20
21019;DHT22;10667;51.056;3.732;2022-07-01T13:46:15;30.40;74.90
21019;DHT22;10667;51.056;3.732;2022-07-01T13:48:41;30.50;66.50
21019;DHT22;10667;51.056;3.732;2022-07-01T13:51:06;31.80;68.80
21019;DHT22;10667;51.056;3.732;2022-07-01T13:53:32;32.10;60.20
21019;DHT22;10667;51.056;3.732;2022-07-01T13:55:58;31.30;58.60
21019;DHT22;10667;51.056;3.732;2022-07-01T13:58:23;31.70;57.20
21019;DHT22;10667;51.056;3.732;2022-07-01T14:00:49;32.10;54.70
21019;DHT22;10667;51.056;3.732;2022-07-01T14:03:15;33.00;54.30
21019;DHT22;10667;51.056;3.732;2022-07-01T14:05:40;33.10;51.60
21019;DHT22;10667;51.056;3.732;2022-07-01T14:08:06;32.80;48.50
21019;DHT22;10667;51.056;3.732;2022-07-01T14:10:32;33.10;48.90
21019;DHT22;10667;51.056;3.732;2022-07-01T14:13:00;34.60;47.80
21019;DHT22;10667;51.056;3.732;2022-07-01T14:15:25;33.10;46.90
21019;DHT22;10667;51.056;3.732;2022-07-01T14:17:51;32.00;46.70
21019;DHT22;10667;51.056;3.732;2022-07-01T14:20:17;31.70;46.60
21019;DHT22;10667;51.056;3.732;2022-07-01T14:22:42;30.50;48.00
21019;DHT22;10667;51.056;3.732;2022-07-01T14:25:08;30.00;48.80
21019;DHT22;10667;51.056;3.732;2022-07-01T14:27:34;30.10;49.70
21019;DHT22;10667;51.056;3.732;2022-07-01T14:29:59;31.30;49.00
21019;DHT22;10667;51.056;3.732;2022-07-01T14:32:25;31.80;46.80
21019;DHT22;10667;51.056;3.732;2022-07-01T14:34:56;32.40;46.10
21019;DHT22;10667;51.056;3.732;2022-07-01T14:37:21;33.20;46.90
21019;DHT22;10667;51.056;3.732;2022-07-01T14:39:47;34.00;45.20
21019;DHT22;10667;51.056;3.732;2022-07-01T14:42:16;34.10;44.40
21019;DHT22;10667;51.056;3.732;2022-07-01T14:44:42;32.90;44.20
21019;DHT22;10667;51.056;3.732;2022-07-01T14:47:07;32.40;45.90
21019;DHT22;10667;51.056;3.732;2022-07-01T14:49:33;32.10;45.90
21019;DHT22;10667;51.056;3.732;2022-07-01T14:52:02;31.70;46.90
21019;DHT22;10667;51.056;3.732;2022-07-01T14:54:28;31.80;47.40
21019;DHT22;10667;51.056;3.732;2022-07-01T14:56:54;33.70;46.30
21019;DHT22;10667;51.056;3.732;2022-07-01T14:59:20;35.20;44.50
21019;DHT22;10667;51.056;3.732;2022-07-01T15:01:45;35.80;41.70
21019;DHT22;10667;51.056;3.732;2022-07-01T15:04:11;36.40;40.70
21019;DHT22;10667;51.056;3.732;2022-07-01T15:06:37;36.00;40.80
21019;DHT22;10667;51.056;3.732;2022-07-01T15:09:02;36.10;41.60
21019;DHT22;10667;51.056;3.732;2022-07-01T15:11:28;35.70;41.40
21019;DHT22;10667;51.056;3.732;2022-07-01T15:13:54;35.80;41.70
21019;DHT22;10667;51.056;3.732;2022-07-01T15:16:19;36.00;41.30
21019;DHT22;10667;51.056;3.732;2022-07-01T15:18:45;37.00;40.60
21019;DHT22;10667;51.056;3.732;2022-07-01T15:21:11;36.90;38.50
21019;DHT22;10667;51.056;3.732;2022-07-01T15:23:37;35.80;36.70
21019;DHT22;10667;51.056;3.732;2022-07-01T15:26:02;34.40;40.30
21019;DHT22;10667;51.056;3.732;2022-07-01T15:28:29;34.60;40.70
21019;DHT22;10667;51.056;3.732;2022-07-01T15:30:54;34.20;40.80
21019;DHT22;10667;51.056;3.732;2022-07-01T15:33:20;34.70;41.10
21019;DHT22;10667;51.056;3.732;2022-07-01T15:35:46;35.40;39.90
21019;DHT22;10667;51.056;3.732;2022-07-01T15:38:12;35.80;39.60
21019;DHT22;10667;51.056;3.732;2022-07-01T15:40:37;36.00;37.80
21019;DHT22;10667;51.056;3.732;2022-07-01T15:43:03;35.20;39.20
21019;DHT22;10667;51.056;3.732;2022-07-01T15:45:29;33.50;42.10
21019;DHT22;10667;51.056;3.732;2022-07-01T15:47:55;32.40;43.80
21019;DHT22;10667;51.056;3.732;2022-07-01T15:50:36;31.30;45.40
21019;DHT22;10667;51.056;3.732;2022-07-01T15:53:02;29.20;49.00
21019;DHT22;10667;51.056;3.732;2022-07-01T15:55:28;28.50;52.00
21019;DHT22;10667;51.056;3.732;2022-07-01T15:57:54;28.40;52.50
21019;DHT22;10667;51.056;3.732;2022-07-01T16:00:21;28.10;53.30
21019;DHT22;10667;51.056;3.732;2022-07-01T16:02:48;28.10;52.90